Time;durP1;ratioP1;P1;durP2;ratioP2;P2;SDS_P1;SDS_P2;PMS_P1;PMS_P2;Temp;Humidity;BMP_temperature;BMP_pressure;BME280_temperature;BME280_humidity;BME280_pressure;Samples;Min_cycle;Max_cycle;Signal;HPM_P1;HPM_P2
2024/04/11 00:00:24;;;;;;;4.80;2.30;;;;;;;11.53;51.82;101105.13;5246397;27;20006;-86
2024/04/11 00:02:51;;;;;;;5.78;1.90;;;;;;;11.52;51.75;101099.03;5246925;27;20019;-86
2024/04/11 00:05:20;;;;;;;6.18;2.42;;;;;;;11.50;51.83;101092.94;5246585;27;20473;-86
2024/04/11 00:07:47;;;;;;;6.20;2.22;;;;;;;11.49;51.84;101088.59;5247044;27;20003;-86
2024/04/11 00:10:14;;;;;;;8.90;1.98;;;;;;;11.50;51.81;101092.94;5245844;27;20010;-85
2024/04/11 00:12:40;;;;;;;4.55;2.20;;;;;;;11.48;51.96;101097.44;5246521;27;20002;-86
2024/04/11 00:15:07;;;;;;;7.75;2.47;;;;;;;11.44;52.06;101096.66;5275678;27;20010;-86
2024/04/11 00:17:34;;;;;;;7.25;2.30;;;;;;;11.41;51.74;101088.91;5275649;27;20002;-86
2024/04/11 00:20:03;;;;;;;7.18;2.30;;;;;;;11.39;52.13;101097.75;5274867;27;20006;-86
2024/04/11 00:22:30;;;;;;;4.97;1.80;;;;;;;11.34;51.84;101085.63;5273759;27;20076;-86
2024/04/11 00:24:57;;;;;;;7.63;2.08;;;;;;;11.36;51.98;101101.38;5275640;27;20010;-86
2024/04/11 00:27:24;;;;;;;7.43;2.08;;;;;;;11.33;52.37;101102.34;5249060;27;20334;-86
2024/04/11 00:29:51;;;;;;;9.05;2.20;;;;;;;11.34;52.14;101090.06;5278216;27;20019;-86
2024/04/11 00:32:18;;;;;;;8.68;2.45;;;;;;;11.33;52.30;101089.19;5249003;27;20084;-86
2024/04/11 00:34:44;;;;;;;7.97;2.30;;;;;;;11.33;52.59;101083.91;5249569;27;20021;-86
2024/04/11 00:37:11;;;;;;;4.97;2.22;;;;;;;11.33;52.39;101086.53;5276932;27;20034;-86
2024/04/11 00:39:38;;;;;;;6.10;2.20;;;;;;;11.34;52.18;101096.16;5276166;27;20014;-85
2024/04/11 00:42:07;;;;;;;8.60;2.55;;;;;;;11.32;52.26;101087.47;5277376;27;20003;-86
2024/04/11 00:44:36;;;;;;;6.15;1.98;;;;;;;11.31;52.26;101095.44;5248896;27;20352;-86
2024/04/11 00:47:09;;;;;;;3.30;1.92;;;;;;;11.31;52.24;101096.31;5248948;27;20002;-85
2024/04/11 00:49:40;;;;;;;6.40;2.67;;;;;;;11.31;52.19;101079.63;5248526;27;20007;-86
2024/04/11 00:52:10;;;;;;;5.65;2.10;;;;;;;11.29;52.66;101079.66;5248923;27;20006;-86
2024/04/11 00:54:37;;;;;;;12.05;2.50;;;;;;;11.29;52.21;101086.75;5248979;27;20006;-86
2024/04/11 00:57:07;;;;;;;10.20;2.25;;;;;;;11.27;52.62;101089.44;5276791;27;20345;-85
2024/04/11 00:59:38;;;;;;;7.93;3.13;;;;;;;11.26;52.71;101081.56;5277972;27;20017;-86
2024/04/11 01:02:10;;;;;;;6.13;2.40;;;;;;;11.24;52.28;101076.34;5249562;27;20022;-86
2024/04/11 01:04:36;;;;;;;8.15;2.50;;;;;;;11.27;52.90;101078.00;5278872;27;20646;-86
2024/04/11 01:07:10;;;;;;;7.15;2.00;;;;;;;11.24;52.72;101084.25;5248946;27;20658;-86
2024/04/11 01:09:44;;;;;;;11.25;2.20;;;;;;;11.24;52.47;101094.81;5248382;27;20016;-85
2024/04/11 01:12:16;;;;;;;9.30;2.30;;;;;;;11.25;52.57;101085.13;5249105;27;20013;-86
2024/04/11 01:14:46;;;;;;;5.40;2.10;;;;;;;11.26;52.83;101086.84;5278425;27;20014;-86
2024/04/11 01:17:15;;;;;;;4.90;1.95;;;;;;;11.25;52.84;101077.22;5248752;27;20025;-86
2024/04/11 01:19:44;;;;;;;6.45;2.08;;;;;;;11.23;52.83;101072.00;5277220;27;20003;-85
2024/04/11 01:22:11;;;;;;;7.93;2.35;;;;;;;11.21;52.96;101079.09;5248508;27;20025;-86
2024/04/11 01:24:40;;;;;;;9.52;2.50;;;;;;;11.19;52.97;101086.22;5248887;27;20017;-86
2024/04/11 01:27:17;;;;;;;5.40;2.33;;;;;;;11.15;52.74;101089.91;5276164;27;20039;-86
2024/04/11 01:29:43;;;;;;;8.93;2.55;;;;;;;11.14;53.30;101083.75;5276122;27;20017;-85
2024/04/11 01:32:10;;;;;;;6.10;2.53;;;;;;;11.12;53.25;101079.47;5277967;27;20084;-86
2024/04/11 01:34:37;;;;;;;6.63;2.67;;;;;;;11.08;53.43;101086.63;5278229;27;20349;-85
2024/04/11 01:37:05;;;;;;;9.77;2.42;;;;;;;11.08;53.39;101094.53;5247638;27;20003;-85
2024/04/11 01:39:32;;;;;;;10.15;2.55;;;;;;;11.07;53.76;101098.94;5277728;27;20078;-85
2024/04/11 01:41:59;;;;;;;5.93;2.45;;;;;;;11.07;53.65;101098.09;5248399;27;20018;-85
2024/04/11 01:44:27;;;;;;;4.70;2.25;;;;;;;11.05;53.51;101087.59;5276333;27;20467;-86
2024/04/11 01:46:55;;;;;;;9.35;2.95;;;;;;;11.06;53.46;101088.44;5248821;27;20405;-86
2024/04/11 01:49:22;;;;;;;6.22;2.47;;;;;;;11.06;54.07;101081.41;5276071;27;20017;-86
2024/04/11 01:51:49;;;;;;;10.82;3.05;;;;;;;11.10;53.96;101076.03;5248757;27;20326;-86
2024/04/11 01:54:16;;;;;;;11.45;2.80;;;;;;;11.11;53.89;101072.47;5277680;27;20473;-86
2024/04/11 01:56:43;;;;;;;9.00;3.10;;;;;;;11.12;54.25;101072.44;5276389;27;20070;-86
2024/04/11 01:59:10;;;;;;;9.27;2.70;;;;;;;11.13;53.84;101070.63;5275976;27;20381;-85
2024/04/11 02:01:37;;;;;;;10.50;3.33;;;;;;;11.16;53.90;101074.03;5248283;27;20010;-87
2024/04/11 02:04:09;;;;;;;9.30;2.83;;;;;;;11.17;54.08;101072.22;5277601;27;20057;-86
2024/04/11 02:06:37;;;;;;;11.50;3.10;;;;;;;11.19;53.94;101079.19;5248580;27;20006;-86
2024/04/11 02:09:11;;;;;;;12.15;2.80;;;;;;;11.20;54.27;101082.66;5248322;27;20025;-86
2024/04/11 02:11:41;;;;;;;9.07;2.80;;;;;;;11.21;54.34;101077.34;5248207;27;20015;-87
2024/04/11 02:14:08;;;;;;;6.68;2.53;;;;;;;11.21;54.19;101077.34;5248281;27;20010;-86
2024/04/11 02:16:36;;;;;;;6.60;2.80;;;;;;;11.25;54.20;101080.69;5248114;27;20006;-86
2024/04/11 02:19:06;;;;;;;11.00;2.83;;;;;;;11.25;54.13;101070.16;5276527;27;20007;-86
2024/04/11 02:21:34;;;;;;;8.20;2.85;;;;;;;11.28;54.76;101069.19;5278328;27;20014;-86
2024/04/11 02:24:01;;;;;;;7.40;2.50;;;;;;;11.28;54.66;101075.31;5276000;27;20010;-86
2024/04/11 02:26:32;;;;;;;8.43;3.08;;;;;;;11.30;54.43;101070.00;5249482;27;20022;-86
2024/04/11 02:28:59;;;;;;;6.60;2.65;;;;;;;11.30;54.32;101068.22;5248471;27;20021;-86
2024/04/11 02:31:26;;;;;;;10.18;3.10;;;;;;;11.31;54.08;101069.94;5276545;27;20006;-85
2024/04/11 02:33:59;;;;;;;9.27;3.22;;;;;;;11.33;54.22;101065.44;5249313;27;20006;-85
2024/04/11 02:36:29;;;;;;;8.25;2.70;;;;;;;11.33;54.61;101070.72;5247346;27;20543;-86
2024/04/11 02:38:57;;;;;;;8.10;3.08;;;;;;;11.32;54.66;101060.25;5247948;27;20034;-86
2024/04/11 02:41:25;;;;;;;9.65;3.20;;;;;;;11.36;54.44;101050.44;5247560;27;20010;-86
2024/04/11 02:43:51;;;;;;;9.27;2.70;;;;;;;11.35;54.48;101060.13;5275670;27;20020;-86
2024/04/11 02:46:18;;;;;;;8.30;2.53;;;;;;;11.37;54.45;101062.69;5247813;27;20002;-85
2024/04/11 02:48:46;;;;;;;11.88;3.03;;;;;;;11.37;54.89;101046.88;5275747;27;20322;-86
2024/04/11 02:51:13;;;;;;;10.10;2.85;;;;;;;11.37;54.59;101052.16;5277243;27;20089;-86
2024/04/11 02:53:41;;;;;;;6.05;2.70;;;;;;;11.37;54.55;101033.72;5275393;27;20006;-86
2024/04/11 02:56:08;;;;;;;7.13;2.97;;;;;;;11.38;54.74;101052.09;5248137;27;20021;-85
2024/04/11 02:58:36;;;;;;;11.75;3.10;;;;;;;11.38;54.59;101044.19;5277536;27;20002;-86
2024/04/11 03:01:06;;;;;;;10.80;3.65;;;;;;;11.37;54.35;101053.03;5248140;27;20330;-86
2024/04/11 03:03:34;;;;;;;9.73;3.30;;;;;;;11.40;55.07;101052.88;5248113;27;20477;-85
2024/04/11 03:06:17;;;;;;;6.28;2.85;;;;;;;11.41;54.79;101045.84;5277501;27;20025;-86
2024/04/11 03:08:50;;;;;;;13.88;3.13;;;;;;;11.42;54.74;101052.84;5247793;27;20002;-86
2024/04/11 03:11:17;;;;;;;8.23;3.45;;;;;;;11.44;54.99;101049.22;5247237;27;20058;-85
2024/04/11 03:13:44;;;;;;;8.30;2.55;;;;;;;11.47;54.63;101046.47;5248272;27;20017;-86
2024/04/11 03:16:11;;;;;;;8.75;3.03;;;;;;;11.48;54.76;101042.06;5278165;27;20010;-86
2024/04/11 03:18:39;;;;;;;8.50;3.08;;;;;;;11.51;54.81;101048.97;5275429;27;20468;-86
2024/04/11 03:21:07;;;;;;;13.65;3.00;;;;;;;11.52;54.94;101048.94;5247873;27;20115;-86
2024/04/11 03:23:34;;;;;;;10.27;3.28;;;;;;;11.53;54.81;101036.56;5277470;27;20043;-87
2024/04/11 03:26:01;;;;;;;7.28;2.80;;;;;;;11.55;54.93;101040.03;5247895;27;20022;-86
2024/04/11 03:28:27;;;;;;;10.02;3.38;;;;;;;11.54;54.79;101033.88;5247860;27;20017;-86
2024/04/11 03:30:57;;;;;;;7.45;3.03;;;;;;;11.55;54.59;101022.41;5247351;27;20358;-86
2024/04/11 03:33:26;;;;;;;8.32;3.45;;;;;;;11.57;54.88;101025.00;5247724;27;20002;-86
2024/04/11 03:35:58;;;;;;;8.05;3.10;;;;;;;11.56;54.51;101010.09;5247115;27;20007;-86
2024/04/11 03:38:26;;;;;;;15.95;2.97;;;;;;;11.57;55.33;101010.03;5246892;27;20018;-86
2024/04/11 03:41:04;;;;;;;9.13;2.80;;;;;;;11.57;54.82;101004.75;5246847;27;20011;-86
2024/04/11 03:43:34;;;;;;;9.10;2.90;;;;;;;11.58;55.39;101009.09;5246816;27;20422;-86
2024/04/11 03:46:07;;;;;;;7.50;3.13;;;;;;;11.58;55.01;101009.09;5276446;27;20006;-85
2024/04/11 03:48:34;;;;;;;8.18;3.05;;;;;;;11.57;54.97;101009.16;5247405;27;20007;-86
2024/04/11 03:51:14;;;;;;;10.55;3.70;;;;;;;11.54;54.67;101012.78;5274845;27;20018;-86
2024/04/11 03:53:42;;;;;;;8.02;2.80;;;;;;;11.58;55.00;101013.50;5246773;27;20002;-86
2024/04/11 03:56:09;;;;;;;8.65;2.75;;;;;;;11.56;55.22;101020.66;5247322;27;20010;-85
2024/04/11 03:58:37;;;;;;;12.80;3.22;;;;;;;11.59;54.83;101034.56;5246844;27;20007;-86
2024/04/11 04:01:05;;;;;;;9.05;3.10;;;;;;;11.59;55.05;101047.72;5275388;27;20353;-86
2024/04/11 04:03:33;;;;;;;8.18;2.55;;;;;;;11.62;54.88;101040.63;5274484;27;20021;-86
2024/04/11 04:06:00;;;;;;;7.88;2.40;;;;;;;11.64;54.76;101030.88;5247027;27;20021;-86
2024/04/11 04:08:28;;;;;;;9.88;3.13;;;;;;;11.67;54.75;101036.03;5276423;27;20002;-86
2024/04/11 04:10:56;;;;;;;8.68;2.85;;;;;;;11.70;54.98;101031.47;5246291;27;20010;-86
2024/04/11 04:13:22;;;;;;;6.93;2.65;;;;;;;11.73;54.71;101034.00;5275997;27;20006;-85
2024/04/11 04:15:49;;;;;;;7.97;3.28;;;;;;;11.76;54.76;101030.38;5274807;27;20500;-86
2024/04/11 04:18:16;;;;;;;8.05;2.58;;;;;;;11.80;54.70;101036.38;5245563;27;20108;-86
2024/04/11 04:20:44;;;;;;;6.68;2.45;;;;;;;11.82;54.48;101032.72;5275390;27;20054;-86
2024/04/11 04:23:11;;;;;;;8.63;2.60;;;;;;;11.85;54.81;101027.34;5273633;27;20017;-86
2024/04/11 04:25:41;;;;;;;10.50;2.95;;;;;;;11.88;55.01;101017.59;5246139;27;20010;-86
2024/04/11 04:28:08;;;;;;;10.05;2.30;;;;;;;11.90;54.76;101019.25;5246327;27;20003;-86
2024/04/11 04:30:35;;;;;;;7.72;2.38;;;;;;;11.92;54.70;101016.53;5275338;27;20512;-86
2024/04/11 04:33:04;;;;;;;10.65;2.67;;;;;;;11.94;54.85;101018.19;5273535;27;20006;-86
2024/04/11 04:35:31;;;;;;;6.90;2.42;;;;;;;11.95;54.99;101011.97;5275112;27;20006;-86
2024/04/11 04:37:58;;;;;;;8.70;2.65;;;;;;;11.95;54.75;101021.66;5273654;27;20007;-86
2024/04/11 04:40:25;;;;;;;5.72;2.20;;;;;;;11.96;54.99;101013.69;5275427;27;20025;-86
2024/04/11 04:42:52;;;;;;;9.18;2.75;;;;;;;11.97;54.88;101015.41;5245687;27;20002;-86
2024/04/11 04:45:19;;;;;;;10.38;2.63;;;;;;;11.98;54.95;101013.63;5245977;27;20330;-86
2024/04/11 04:47:47;;;;;;;8.85;2.97;;;;;;;11.96;54.67;101018.97;5246137;27;20085;-85
2024/04/11 04:50:14;;;;;;;6.90;2.22;;;;;;;11.97;54.72;101017.19;5273539;27;20061;-86
2024/04/11 04:52:43;;;;;;;8.15;2.63;;;;;;;11.96;54.98;101018.13;5274959;27;20057;-86
2024/04/11 04:55:10;;;;;;;7.32;2.40;;;;;;;11.96;54.67;101018.13;5245588;27;20021;-86
2024/04/11 04:57:37;;;;;;;8.73;2.55;;;;;;;11.97;55.18;101019.84;5248028;27;20006;-88
2024/04/11 05:00:13;;;;;;;9.45;2.65;;;;;;;11.96;54.75;101018.13;5251545;27;20006;-88
2024/04/11 05:02:40;;;;;;;6.90;2.25;;;;;;;11.98;55.17;101018.91;5275829;27;20021;-86
2024/04/11 05:05:07;;;;;;;5.93;2.50;;;;;;;11.97;54.81;101017.19;5246217;27;20554;-87
2024/04/11 05:07:34;;;;;;;8.85;2.92;;;;;;;11.96;55.03;101016.34;5245860;27;20496;-86
2024/04/11 05:10:28;;;;;;;8.48;3.03;;;;;;;11.95;54.44;101021.66;5247375;27;20010;-87
2024/04/11 05:20:35;;;;;;;4.55;2.03;;;;;;;11.99;54.83;101021.50;5285503;22;20073;-87
2024/04/11 05:23:06;;;;;;;9.32;2.20;;;;;;;11.97;54.75;101022.47;5280478;27;20148;-87
2024/04/11 05:25:33;;;;;;;10.07;3.47;;;;;;;11.97;54.98;101022.47;5306394;27;20010;-86
2024/04/11 05:28:07;;;;;;;8.50;2.45;;;;;;;11.97;55.17;101020.69;5250758;27;20146;-87
2024/04/11 05:30:39;;;;;;;7.03;2.15;;;;;;;11.99;54.91;101023.25;5279827;27;20006;-87
2024/04/11 05:33:09;;;;;;;8.15;2.80;;;;;;;12.01;55.28;101028.47;5306512;27;20334;-86
2024/04/11 05:35:36;;;;;;;11.15;2.70;;;;;;;12.01;55.14;101026.72;5250520;27;20369;-87
2024/04/11 05:38:03;;;;;;;7.13;2.15;;;;;;;12.04;55.13;101025.72;5250764;27;20080;-86
2024/04/11 05:40:32;;;;;;;4.43;2.20;;;;;;;12.05;55.15;101037.97;5279822;27;20454;-86
2024/04/11 05:43:00;;;;;;;8.65;1.88;;;;;;;12.06;55.38;101035.31;5279837;27;20046;-87
2024/04/11 05:45:33;;;;;;;10.88;3.22;;;;;;;12.07;55.23;101031.75;5250102;27;20021;-87
2024/04/11 05:48:03;;;;;;;5.72;2.50;;;;;;;12.10;55.21;101031.63;5150417;27;20015;-86
2024/04/11 05:50:38;;;;;;;10.70;2.80;;;;;;;12.11;55.16;101028.03;5251477;27;20014;-93
2024/04/11 05:53:20;;;;;;;10.27;2.33;;;;;;;12.07;54.37;101026.47;5281973;27;20446;-94
2024/04/11 05:59:46;;;;;;;10.52;2.67;;;;;;;12.16;55.21;101027.00;5284048;27;20035;-94
2024/04/11 06:06:00;;;;;;;7.35;2.15;;;;;;;12.16;55.42;101027.00;5284234;27;20018;-93
2024/04/11 06:12:16;;;;;;;14.73;2.67;;;;;;;12.13;55.69;101025.34;5283874;27;20072;-94
2024/04/11 06:18:34;;;;;;;4.63;2.28;;;;;;;12.05;55.65;101030.97;5284016;27;20044;-94
2024/04/11 06:28:38;;;;;;;7.50;2.67;;;;;;;11.92;56.58;101045.56;5249929;27;20104;-94
2024/04/11 06:34:53;;;;;;;6.95;1.90;;;;;;;11.89;56.65;101053.59;5250018;27;20014;-94
2024/04/11 06:41:02;;;;;;;9.95;2.47;;;;;;;11.91;56.96;101057.03;5249607;27;20454;-93
2024/04/11 06:47:12;;;;;;;7.00;2.63;;;;;;;11.97;57.13;101065.53;5251146;27;20006;-93
2024/04/11 06:54:50;;;;;;;6.90;2.13;;;;;;;12.04;56.41;101089.06;5148345;27;20029;-92
2024/04/11 06:57:21;;;;;;;7.93;2.45;;;;;;;12.13;56.78;101091.34;5119575;27;20008;-94
2024/04/11 06:59:49;;;;;;;6.13;1.90;;;;;;;12.15;57.25;101093.91;5218278;27;20011;-93
2024/04/11 07:06:09;;;;;;;11.15;2.30;;;;;;;12.16;57.65;101085.06;5249545;27;20358;-92
2024/04/11 07:09:03;;;;;;;7.73;2.27;;;;;;;12.16;57.85;101095.63;5249554;27;20043;-93
2024/04/11 07:11:39;;;;;;;6.80;2.30;;;;;;;12.10;57.80;101089.69;5273290;27;20055;-94
2024/04/11 07:18:17;;;;;;;7.85;2.40;;;;;;;11.96;58.97;101106.06;5249502;27;20005;-94
2024/04/11 07:28:20;;;;;;;5.20;2.10;;;;;;;11.77;59.88;101107.75;5283434;27;20068;-94
2024/04/11 07:34:34;;;;;;;7.55;2.13;;;;;;;11.78;61.26;101130.56;5281767;27;20009;-95
2024/04/11 07:40:54;;;;;;;9.30;2.40;;;;;;;11.85;60.87;101140.78;5283158;27;20073;-94
2024/04/11 07:47:08;;;;;;;4.38;1.90;;;;;;;11.95;61.80;101143.91;5282990;27;20009;-94
2024/04/11 07:53:32;;;;;;;8.55;2.25;;;;;;;12.03;61.68;101132.22;5282824;27;20009;-94
2024/04/11 07:59:41;;;;;;;12.00;2.25;;;;;;;12.07;61.82;101126.75;5282851;27;20479;-95
2024/04/11 09:30:06;;;;;;;7.78;2.55;;;;;;;12.86;67.21;101230.88;5243854;27;20640;-88
2024/04/11 09:32:36;;;;;;;10.50;2.70;;;;;;;12.89;67.62;101236.03;5216985;27;20006;-88
2024/04/11 09:35:05;;;;;;;8.02;2.95;;;;;;;12.94;67.52;101229.69;5245841;27;20468;-87
2024/04/11 09:37:35;;;;;;;8.68;2.80;;;;;;;12.98;67.33;101233.94;5246054;27;20081;-87
2024/04/11 09:40:11;;;;;;;8.45;2.53;;;;;;;13.04;67.50;101228.34;5216800;27;20021;-87
2024/04/11 09:42:43;;;;;;;10.45;3.00;;;;;;;13.13;67.77;101240.34;5216992;27;20014;-87
2024/04/11 09:45:18;;;;;;;7.05;2.85;;;;;;;13.19;67.63;101247.13;5217036;27;20010;-87
2024/04/11 09:47:47;;;;;;;12.00;2.60;;;;;;;13.24;67.36;101242.50;5246257;27;20010;-87
2024/04/11 09:50:18;;;;;;;7.75;2.40;;;;;;;13.28;67.54;101242.28;5245852;27;20019;-87
2024/04/11 09:52:46;;;;;;;8.45;2.95;;;;;;;13.34;67.37;101257.03;5246055;27;20335;-87
2024/04/11 09:55:16;;;;;;;9.97;3.10;;;;;;;13.39;67.07;101251.53;5246135;27;20400;-87
2024/04/11 09:57:46;;;;;;;8.68;3.08;;;;;;;13.44;67.53;101262.75;5216005;27;20014;-87
2024/04/11 10:03:03;;;;;;;10.05;3.22;;;;;;;13.55;67.39;101255.25;5245947;27;20018;-87
2024/04/11 10:05:45;;;;;;;11.13;2.75;;;;;;;13.58;67.37;101254.25;5245901;27;20027;-87
2024/04/11 10:08:36;;;;;;;9.52;3.28;;;;;;;13.62;66.77;101255.81;5245857;27;20027;-87
2024/04/11 10:11:04;;;;;;;6.75;2.67;;;;;;;13.71;67.17;101259.81;5216153;27;20005;-87
2024/04/11 10:13:40;;;;;;;5.72;2.60;;;;;;;13.74;67.08;101267.63;5216806;27;20391;-87
2024/04/11 10:16:13;;;;;;;7.07;3.08;;;;;;;13.78;67.29;101260.38;5216862;27;20003;-86
2024/04/11 10:18:51;;;;;;;9.20;3.13;;;;;;;13.82;67.96;101259.31;5245898;27;20373;-87
2024/04/11 10:21:27;;;;;;;6.32;2.75;;;;;;;13.87;68.58;101265.25;5217340;27;20003;-87
2024/04/11 10:24:14;;;;;;;;;;;;;;;13.96;68.02;101253.38;5245799;27;20465;-87
2024/04/11 10:26:47;;;;;;;9.00;2.95;;;;;;;14.04;67.55;101268.91;5216657;27;20641;-88
2024/04/11 10:29:18;;;;;;;9.52;3.30;;;;;;;14.07;67.45;101264.34;5216302;27;20070;-87
2024/04/11 10:31:47;;;;;;;9.13;3.22;;;;;;;14.12;67.61;101269.41;5216622;27;20018;-87
2024/04/11 10:34:19;;;;;;;10.57;3.92;;;;;;;14.15;67.83;101284.28;5245300;27;20018;-87
2024/04/11 10:36:53;;;;;;;8.95;3.70;;;;;;;14.17;68.02;101272.69;5245624;27;20456;-87
2024/04/11 10:49:59;;;;;;;13.50;5.03;;;;;;;14.38;68.35;101280.53;5250001;27;20049;-96
2024/04/11 11:03:14;;;;;;;11.00;4.45;;;;;;;14.68;68.51;101256.09;5249582;27;20360;-96
2024/04/11 11:09:22;;;;;;;11.70;5.03;;;;;;;14.88;69.57;101272.81;5249750;27;20036;-95
2024/04/11 11:15:39;;;;;;;11.02;4.78;;;;;;;15.12;68.14;101293.72;5249498;27;20369;-95
2024/04/11 11:21:59;;;;;;;7.30;4.70;;;;;;;15.30;67.90;101291.03;5249664;27;20065;-95
2024/04/11 11:28:14;;;;;;;10.38;5.00;;;;;;;15.50;67.88;101280.25;5249600;27;20006;-95
2024/04/11 11:34:30;;;;;;;8.00;4.55;;;;;;;15.72;66.79;101286.16;5249605;27;20114;-95
2024/04/11 11:44:34;;;;;;;11.88;5.30;;;;;;;15.92;66.19;101298.34;5249144;27;20077;-96
2024/04/11 11:51:11;;;;;;;10.25;5.47;;;;;;;15.95;65.41;101305.31;5249260;27;20046;-95
2024/04/11 11:57:22;;;;;;;9.95;5.22;;;;;;;15.94;65.72;101314.22;5249338;27;20006;-95
2024/04/11 12:03:37;;;;;;;10.15;5.03;;;;;;;15.98;65.89;101308.69;5249164;27;20047;-95
2024/04/11 12:10:12;;;;;;;11.80;5.68;;;;;;;16.01;65.47;101311.16;5249119;27;20066;-95
2024/04/11 12:20:33;;;;;;;11.60;5.68;;;;;;;16.04;65.89;101306.63;5248290;27;20010;-96
2024/04/11 12:26:49;;;;;;;12.38;5.97;;;;;;;16.08;65.74;101311.69;5248700;27;20047;-95
2024/04/11 12:33:05;;;;;;;12.18;6.03;;;;;;;16.11;65.77;101300.88;5249161;27;20069;-95
2024/04/11 12:39:22;;;;;;;10.90;5.88;;;;;;;16.21;66.38;101301.22;5248536;27;20006;-96
2024/04/11 12:52:44;;;;;;;10.55;5.53;;;;;;;16.50;65.86;101311.16;5248235;27;20352;-95
2024/04/11 12:59:05;;;;;;;14.20;5.75;;;;;;;16.60;65.33;101308.84;5247886;27;20022;-96
2024/04/11 13:05:15;;;;;;;13.85;5.90;;;;;;;16.66;65.43;101313.78;5248462;27;20242;-95
2024/04/11 13:11:36;;;;;;;11.27;6.10;;;;;;;16.69;64.92;101300.31;5248006;27;20009;-95
2024/04/11 13:22:08;;;;;;;12.75;6.25;;;;;;;16.72;64.89;101315.22;5247758;27;20433;-96
2024/04/11 13:28:16;;;;;;;11.57;5.68;;;;;;;16.74;65.39;101308.88;5247718;27;20010;-95
2024/04/11 13:45:50;;;;;;;9.40;5.47;;;;;;;16.79;64.22;101322.75;5250961;27;20070;-95
2024/04/11 13:56:38;;;;;;;11.20;5.85;;;;;;;16.63;64.87;101322.78;5250704;27;20073;-95
2024/04/11 14:10:13;;;;;;;8.82;5.43;;;;;;;16.56;65.95;101328.56;5250525;27;20005;-93
2024/04/11 14:16:51;;;;;;;9.82;5.28;;;;;;;16.53;66.04;101309.16;5250282;27;20005;-94
2024/04/11 14:27:13;;;;;;;9.50;5.70;;;;;;;16.52;66.37;101318.09;5249937;27;20348;-94
2024/04/11 14:44:44;;;;;;;10.25;5.53;;;;;;;16.68;66.31;101319.88;5148126;27;20050;-94
2024/04/11 14:50:58;;;;;;;12.65;5.18;;;;;;;16.72;66.20;101304.59;5148496;27;20036;-94
2024/04/11 14:57:13;;;;;;;9.80;5.75;;;;;;;16.71;66.30;101303.72;5148217;27;20417;-93
2024/04/11 15:03:20;;;;;;;8.90;5.22;;;;;;;16.70;66.14;101303.84;5148277;27;20077;-94
2024/04/11 15:09:29;;;;;;;10.90;6.03;;;;;;;16.61;66.39;101311.41;5148307;27;20519;-94
2024/04/11 15:15:41;;;;;;;14.65;5.75;;;;;;;16.53;66.37;101314.47;5216231;27;20014;-93
2024/04/11 15:21:56;;;;;;;8.52;5.30;;;;;;;16.49;66.75;101315.59;5216002;27;20451;-93
2024/04/11 15:35:09;;;;;;;11.38;5.82;;;;;;;16.46;66.77;101298.97;5216046;27;20007;-94
2024/04/11 15:45:12;;;;;;;12.48;5.65;;;;;;;16.36;67.53;101294.19;5215878;27;20340;-94
2024/04/11 15:51:20;;;;;;;8.25;5.93;;;;;;;16.36;68.34;101296.00;5217368;27;20404;-95
2024/04/11 15:57:30;;;;;;;10.50;5.88;;;;;;;16.44;68.37;101311.53;5217932;27;20006;-95
2024/04/11 16:03:39;;;;;;;10.57;5.20;;;;;;;16.56;68.38;101302.81;5215967;27;20019;-96
2024/04/11 16:09:54;;;;;;;10.30;5.15;;;;;;;16.64;67.86;101313.03;5216164;27;20006;-96
2024/04/11 16:16:14;;;;;;;9.25;5.65;;;;;;;16.64;67.52;101327.16;5215790;27;20006;-95
2024/04/11 16:22:26;;;;;;;7.57;6.15;;;;;;;16.60;67.65;101322.13;5215823;27;20011;-96
2024/04/11 16:28:58;;;;;;;9.82;5.07;;;;;;;16.56;67.57;101341.84;5215509;27;20040;-96
2024/04/11 16:35:11;;;;;;;11.15;5.05;;;;;;;16.57;67.83;101333.78;5215545;27;20044;-95
2024/04/11 16:51:27;;;;;;;13.73;6.68;;;;;;;16.42;68.51;101348.81;5215705;27;19999;-95
2024/04/11 16:57:45;;;;;;;10.85;6.07;;;;;;;16.28;69.17;101354.88;5215111;27;20010;-94
2024/04/11 17:04:05;;;;;;;13.00;7.00;;;;;;;16.17;69.72;101343.97;5215238;27;20006;-95
2024/04/11 17:10:19;;;;;;;10.32;6.50;;;;;;;16.10;70.00;101348.78;5218346;27;20333;-95
2024/04/11 17:21:57;;;;;;;12.43;8.23;;;;;;;16.01;70.50;101334.22;5213684;27;20011;-88
2024/04/11 17:24:24;;;;;;;14.50;8.02;;;;;;;16.01;71.03;101336.88;5184974;27;20004;-88
2024/04/11 17:26:57;;;;;;;12.15;7.45;;;;;;;15.99;70.70;101334.31;5212196;27;20015;-87
2024/04/11 17:30:13;;;;;;;11.00;7.07;;;;;;;15.99;70.93;101338.75;5213714;27;20004;-87
2024/04/11 17:32:44;;;;;;;18.40;7.57;;;;;;;15.99;71.00;101339.63;5118179;27;20085;-87
2024/04/11 17:35:48;;;;;;;10.55;8.38;;;;;;;15.98;71.25;101343.22;5184554;27;20035;-87
2024/04/11 17:38:24;;;;;;;11.20;7.82;;;;;;;15.99;70.94;101342.28;5213647;27;20011;-88
2024/04/11 17:41:08;;;;;;;12.57;7.95;;;;;;;15.99;71.43;101344.06;5214808;27;20011;-90
2024/04/11 17:43:41;;;;;;;14.98;8.32;;;;;;;15.97;71.02;101341.50;5226345;27;20007;-88
2024/04/11 17:46:08;;;;;;;13.07;7.45;;;;;;;15.97;71.25;101340.63;5215539;27;20060;-88
2024/04/11 17:48:40;;;;;;;8.52;6.97;;;;;;;15.94;71.62;101341.66;5216286;27;20006;-88
2024/04/11 17:51:15;;;;;;;11.75;7.75;;;;;;;15.94;71.63;101346.97;5245249;27;20007;-88
2024/04/11 17:53:49;;;;;;;11.70;6.97;;;;;;;15.93;71.88;101350.56;5244895;27;20026;-87
2024/04/11 17:56:34;;;;;;;12.35;6.43;;;;;;;15.95;71.54;101346.03;5245730;27;20007;-88
2024/04/11 17:59:16;;;;;;;11.25;7.40;;;;;;;15.93;71.81;101344.38;5245782;27;20007;-88
2024/04/11 18:02:00;;;;;;;8.77;6.80;;;;;;;15.93;71.76;101344.38;5223661;27;20464;-88
2024/04/11 18:04:30;;;;;;;12.70;7.50;;;;;;;15.90;71.87;101335.63;5217300;27;20015;-88
2024/04/11 18:06:59;;;;;;;14.65;7.78;;;;;;;15.90;71.71;101332.13;5217014;27;20011;-88
2024/04/11 18:09:28;;;;;;;12.63;7.53;;;;;;;15.89;71.87;101343.69;5217041;27;20003;-88
2024/04/11 18:11:58;;;;;;;11.73;7.47;;;;;;;15.88;71.96;101342.81;5217012;27;20364;-88
2024/04/11 18:14:29;;;;;;;14.05;8.25;;;;;;;15.88;72.02;101355.22;5217064;27;20007;-88
2024/04/11 18:17:09;;;;;;;11.32;8.30;;;;;;;15.87;72.54;101358.84;5246233;27;20035;-88
2024/04/11 18:19:44;;;;;;;10.77;8.07;;;;;;;15.87;72.09;101364.13;5216133;27;19999;-88
2024/04/11 18:22:12;;;;;;;11.82;8.32;;;;;;;15.87;72.01;101361.47;5112611;28;20033;-88
2024/04/11 18:24:58;;;;;;;15.43;8.20;;;;;;;15.80;72.55;101360.97;5175975;27;20602;-88
2024/04/11 18:27:25;;;;;;;14.68;8.77;;;;;;;15.83;72.11;101354.63;5217377;27;20320;-87
2024/04/11 18:29:57;;;;;;;16.08;10.05;;;;;;;15.82;72.54;101359.09;5246372;27;20003;-88
2024/04/11 18:32:30;;;;;;;13.02;8.60;;;;;;;15.82;72.16;101367.06;5217242;27;20006;-88
2024/04/11 18:35:04;;;;;;;15.45;9.38;;;;;;;15.79;72.97;101371.66;5081156;28;20432;-88
2024/04/11 18:37:39;;;;;;;11.38;8.75;;;;;;;15.79;72.81;101375.19;5200141;27;20006;-87
2024/04/11 18:42:57;;;;;;;14.75;9.52;;;;;;;15.80;72.71;101383.97;5245809;27;20393;-88
2024/04/11 18:45:33;;;;;;;15.60;8.85;;;;;;;15.81;72.36;101385.72;5216780;27;20010;-88
2024/04/11 18:48:19;;;;;;;11.55;9.25;;;;;;;15.80;72.50;101391.94;5222498;27;20069;-87
2024/04/11 18:50:49;;;;;;;16.25;9.00;;;;;;;15.79;72.64;101395.56;5216264;27;20779;-88
2024/04/11 18:53:16;;;;;;;16.00;9.63;;;;;;;15.78;72.62;101389.41;5245746;27;20441;-88
2024/04/11 18:55:49;;;;;;;14.60;9.50;;;;;;;15.80;72.78;101391.94;5245837;27;20003;-87
2024/04/11 18:58:19;;;;;;;12.80;9.35;;;;;;;15.80;72.94;101394.59;5216737;27;20014;-88
2024/04/11 19:00:46;;;;;;;13.30;9.88;;;;;;;15.80;72.98;101391.94;5245314;27;20007;-88
2024/04/11 19:03:16;;;;;;;14.07;9.73;;;;;;;15.80;72.89;101391.94;5245654;27;20321;-88
2024/04/11 19:05:48;;;;;;;13.50;9.90;;;;;;;15.79;73.08;101391.13;5245691;27;20007;-88
2024/04/11 19:08:16;;;;;;;14.65;9.52;;;;;;;15.80;72.84;101392.81;5245364;27;20010;-88
2024/04/11 19:11:07;;;;;;;11.93;9.13;;;;;;;15.77;73.43;101391.19;5244966;27;20011;-88
2024/04/11 19:13:38;;;;;;;11.40;9.63;;;;;;;15.82;72.93;101390.09;5245435;27;20444;-88